Ana Sayfa
METAR-TAF:

METAR-TAF

Havaalanları :

Rota, Mariana Adaları, Amerika Birleşik Devletleri

Enlem: 14-11N, Boylam: 145-15E, yükseklik: 185 m

Güncel hava durumu gözlemi

Rapor saat 21:50 UTC de 30 dakika önce yapıldı.
Rüzgar doğu/güneydoğudan 12 kt
Sıcaklık 26°C
Nem 89%
Basınç 1013 hPa
Görüş mesafesi: 11.3 km
1300 ft yükseklikte parçalı çok bulutlu
hafif yağmur,

METAR: PGRO 202150Z 12012KT 7SM -RA BKN013 26/24 A2991

Saat: 08:20 (22:20 UTC)

Tahmin

Rapor saat 20:08 UTC de 2 saat ve 12 dakika önce yapıldı.
Ayın 20'si saat 20 UTC'den ayın 21'si saat 18 UTC'ye kadar geçerli Tahmin
Rüzgar doğudan 7 kt
Görüş mesafesi: 10 km
1200 ft yükseklikte parçalı çok bulutlu
14000 ft yükseklikte parçalı çok bulutlu
Civarda sağanaklar
Ayın 20'si saat 2200 UTC'den
Rüzgar doğudan 11 kt
Görüş mesafesi: 10 km
1300 ft yükseklikte parçalı bulutlu
14000 ft yükseklikte parçalı bulutlu

TAF: PGRO 202008Z 2020/2118 08007KT P6SM VCSH BKN012 BKN140 FM202200 08011KT P6SM SCT013 SCT140

4.000'den fazla havaalanı için hava durumu gözlemleri ve tahminleri (METAR ve TAF raporları).

Kullanılabilir istasyonlar harita üzerinde sarı ve kırmızı noktalarla gösterilir.

İstasyonun adını görmek için fareyi noktanın üzerinde gezdirin.

Sonrasında hava gözlem ve tahminlerini görmek için tıklayın.

Haritayı değiştirmek için: yaklaştırmak için siyah artı işaretli yeşil düğmeye ve uzaklaştırmak için de eksi işaretli düğmeye hızla tıklayın; bitişik haritalar için yeşil okları kullanın.


METAR-TAF: